Time;durP1;ratioP1;P1;durP2;ratioP2;P2;SDS_P1;SDS_P2;PMS_P1;PMS_P2;Temp;Humidity;BMP_temperature;BMP_pressure;BME280_temperature;BME280_humidity;BME280_pressure;Samples;Min_cycle;Max_cycle;Signal;HPM_P1;HPM_P2
2023/03/21 00:01:28;;;;;;;;;;;;;;;5.34;65.08;100369.38;4993502;28;4240;-80
2023/03/21 00:03:54;;;;;;;;;;;;;;;5.36;65.04;100368.16;4980315;28;4957;-83
2023/03/21 00:06:21;;;;;;;;;;;;;;;5.31;65.17;100364.41;4998461;28;4999;-82
2023/03/21 00:08:48;;;;;;;;;;;;;;;5.29;65.26;100363.75;4994213;28;4870;-82
2023/03/21 00:11:15;;;;;;;;;;;;;;;5.17;65.66;100361.59;4992763;28;4800;-82
2023/03/21 00:13:42;;;;;;;;;;;;;;;5.09;65.77;100356.38;5001886;28;4803;-82
2023/03/21 00:16:08;;;;;;;;;;;;;;;5.06;66.03;100354.09;4996913;28;4820;-81
2023/03/21 00:18:40;;;;;;;;;;;;;;;5.06;65.92;100358.56;4978861;28;4736;-82
2023/03/21 00:21:07;;;;;;;;;;;;;;;5.10;65.83;100354.53;4999153;28;4920;-80
2023/03/21 00:23:34;;;;;;;;;;;;;;;4.91;66.31;100351.47;4985683;28;4787;-82
2023/03/21 00:26:00;;;;;;;;;;;;;;;5.12;65.80;100352.50;4996326;28;3956;-82
2023/03/21 00:28:27;;;;;;;;;;;;;;;5.04;65.84;100340.09;4997408;28;4598;-80
2023/03/21 00:30:54;;;;;;;;;;;;;;;4.85;66.46;100346.84;4994319;28;4943;-82
2023/03/21 00:33:20;;;;;;;;;;;;;;;4.95;66.19;100341.22;4984299;28;4762;-82
2023/03/21 00:35:47;;;;;;;;;;;;;;;4.92;66.07;100344.28;5000924;28;4898;-81
2023/03/21 00:38:14;;;;;;;;;;;;;;;4.85;66.32;100341.50;4983941;28;4661;-82
2023/03/21 00:40:40;;;;;;;;;;;;;;;4.89;66.18;100347.31;5002442;28;4923;-82
2023/03/21 00:43:07;;;;;;;;;;;;;;;4.89;66.05;100353.47;4998710;28;4763;-80
2023/03/21 00:45:33;;;;;;;;;;;;;;;4.89;65.96;100345.47;4983604;28;4787;-81
2023/03/21 00:48:00;;;;;;;;;;;;;;;4.82;66.21;100349.06;4998777;28;4077;-81
2023/03/21 00:50:27;;;;;;;;;;;;;;;4.83;66.44;100348.06;4994931;28;4022;-80
2023/03/21 00:52:54;;;;;;;;;;;;;;;4.80;66.23;100348.44;4995462;28;4816;-81
2023/03/21 00:55:21;;;;;;;;;;;;;;;4.77;66.40;100358.47;4999635;28;4669;-81
2023/03/21 00:57:47;;;;;;;;;;;;;;;4.77;66.32;100358.47;4997498;28;5172;-82
2023/03/21 01:00:14;;;;;;;;;;;;;;;4.82;66.01;100359.75;4998533;28;4907;-81
2023/03/21 01:02:54;;;;;;;;;;;;;;;4.75;66.24;100365.81;4998765;28;4538;-82
2023/03/21 01:06:03;;;;;;;;;;;;;;;4.69;66.38;100360.41;4997723;28;5027;-79
2023/03/21 01:08:08;;;;;;;;;;;;;;;4.69;66.40;100357.75;5000678;28;4973;-81
2023/03/21 01:10:35;;;;;;;;;;;;;;;4.80;66.28;100356.44;4978771;28;4059;-82
2023/03/21 01:13:01;;;;;;;;;;;;;;;4.72;66.26;100354.69;4999900;28;4865;-81
2023/03/21 01:15:28;;;;;;;;;;;;;;;4.61;66.53;100344.50;4995204;28;5087;-81
2023/03/21 01:17:54;;;;;;;;;;;;;;;4.62;66.38;100341.66;4999623;28;4777;-81
2023/03/21 01:20:21;;;;;;;;;;;;;;;4.61;66.56;100342.66;4982468;28;4770;-83
2023/03/21 01:22:48;;;;;;;;;;;;;;;4.59;66.54;100350.03;4971695;28;4113;-82
2023/03/21 01:25:15;;;;;;;;;;;;;;;4.58;66.56;100344.88;4986363;28;4704;-83
2023/03/21 01:27:42;;;;;;;;;;;;;;;4.54;66.53;100352.44;4986971;28;4925;-82
2023/03/21 01:30:09;;;;;;;;;;;;;;;4.61;66.42;100349.84;4977537;28;4991;-83
2023/03/21 01:32:36;;;;;;;;;;;;;;;4.57;66.42;100344.06;4973202;28;4736;-81
2023/03/21 01:35:02;;;;;;;;;;;;;;;4.59;66.21;100346.50;4970228;28;4902;-82
2023/03/21 01:37:29;;;;;;;;;;;;;;;4.61;66.27;100340.00;4986713;28;4789;-82
2023/03/21 01:39:55;;;;;;;;;;;;;;;4.49;66.69;100336.97;4978899;28;4013;-82
2023/03/21 01:42:22;;;;;;;;;;;;;;;4.47;66.44;100336.34;4993512;28;4650;-83
2023/03/21 01:44:49;;;;;;;;;;;;;;;4.44;66.60;100338.53;4977689;28;3815;-81
2023/03/21 01:47:15;;;;;;;;;;;;;;;4.46;66.65;100339.19;4989981;28;4891;-82
2023/03/21 01:49:44;;;;;;;;;;;;;;;4.42;66.65;100332.56;4993083;28;4599;-80
2023/03/21 01:52:11;;;;;;;;;;;;;;;4.43;66.70;100332.38;4990210;28;4533;-82
2023/03/21 01:54:38;;;;;;;;;;;;;;;4.39;66.75;100333.75;4990343;28;4957;-82
2023/03/21 01:57:05;;;;;;;;;;;;;;;4.38;66.69;100333.94;4990006;28;4699;-82
2023/03/21 01:59:31;;;;;;;;;;;;;;;4.37;66.64;100332.28;4973327;28;4755;-82
2023/03/21 02:01:58;;;;;;;;;;;;;;;4.38;66.69;100334.75;4989618;28;3777;-82
2023/03/21 02:04:27;;;;;;;;;;;;;;;4.35;66.81;100331.63;4976161;28;3468;-82
2023/03/21 02:06:54;;;;;;;;;;;;;;;4.34;66.56;100333.47;4992312;28;4594;-83
2023/03/21 02:09:20;;;;;;;;;;;;;;;4.34;66.67;100325.47;4998018;28;4623;-80
2023/03/21 02:11:48;;;;;;;;;;;;;;;4.33;66.59;100327.31;4995738;28;4407;-82
2023/03/21 02:14:14;;;;;;;;;;;;;;;4.32;66.31;100320.34;4993592;28;4749;-82
2023/03/21 02:16:41;;;;;;;;;;;;;;;4.32;66.49;100322.16;4980624;28;3844;-81
2023/03/21 02:19:07;;;;;;;;;;;;;;;4.31;66.34;100324.00;4993938;28;4199;-81
2023/03/21 02:21:34;;;;;;;;;;;;;;;4.31;66.38;100326.69;4990104;28;4749;-82
2023/03/21 02:24:01;;;;;;;;;;;;;;;4.31;66.34;100325.84;4991677;28;4334;-81
2023/03/21 02:26:28;;;;;;;;;;;;;;;4.32;66.42;100328.34;4995342;28;4682;-82
2023/03/21 02:28:55;;;;;;;;;;;;;;;4.30;66.20;100326.88;4991266;28;4571;-82
2023/03/21 02:31:21;;;;;;;;;;;;;;;4.32;66.24;100327.50;4997663;28;4472;-80
2023/03/21 02:33:48;;;;;;;;;;;;;;;4.31;66.02;100333.84;4997616;28;4794;-79
2023/03/21 02:36:15;;;;;;;;;;;;;;;4.30;66.34;100338.38;4988593;28;4747;-82
2023/03/21 02:38:42;;;;;;;;;;;;;;;4.31;66.10;100337.34;4989787;28;3849;-81
2023/03/21 02:41:08;;;;;;;;;;;;;;;4.30;66.13;100333.03;4991332;28;4707;-82
2023/03/21 02:43:36;;;;;;;;;;;;;;;4.30;66.11;100330.38;4973982;28;3804;-82
2023/03/21 02:46:03;;;;;;;;;;;;;;;4.29;66.15;100328.72;4974519;28;4434;-82
2023/03/21 02:48:29;;;;;;;;;;;;;;;4.29;66.00;100326.06;4992333;28;4447;-84
2023/03/21 02:50:56;;;;;;;;;;;;;;;4.29;66.00;100328.72;4972445;28;4042;-83
2023/03/21 02:53:23;;;;;;;;;;;;;;;4.31;66.02;100326.69;4989278;28;4561;-82
2023/03/21 02:55:51;;;;;;;;;;;;;;;4.31;65.92;100329.34;4995681;28;4707;-82
2023/03/21 02:58:19;;;;;;;;;;;;;;;4.31;65.77;100326.69;4990204;28;4660;-81
2023/03/21 03:00:46;;;;;;;;;;;;;;;4.31;65.80;100331.19;4999388;28;4796;-80
2023/03/21 03:03:13;;;;;;;;;;;;;;;4.31;66.04;100321.34;5001146;28;4861;-83
2023/03/21 03:05:39;;;;;;;;;;;;;;;4.33;65.81;100329.16;4983784;28;3869;-82
2023/03/21 03:08:06;;;;;;;;;;;;;;;4.32;65.79;100330.16;4984221;28;5084;-81
2023/03/21 03:10:32;;;;;;;;;;;;;;;4.31;65.79;100326.69;5001213;28;4890;-82
2023/03/21 03:12:59;;;;;;;;;;;;;;;4.32;65.65;100327.50;4999762;28;4941;-82
2023/03/21 03:15:27;;;;;;;;;;;;;;;4.34;65.69;100330.81;4985280;28;4553;-82
2023/03/21 03:17:54;;;;;;;;;;;;;;;4.32;65.56;100325.69;4984170;28;4670;-83
2023/03/21 03:20:20;;;;;;;;;;;;;;;4.33;65.66;100322.00;4994885;28;4559;-83
2023/03/21 03:22:47;;;;;;;;;;;;;;;4.33;65.51;100323.84;5003434;28;4985;-83
2023/03/21 03:25:14;;;;;;;;;;;;;;;4.36;65.49;100326.13;4999853;28;4770;-81
2023/03/21 03:27:40;;;;;;;;;;;;;;;4.35;65.59;100323.63;4990625;28;4815;-82
2023/03/21 03:30:08;;;;;;;;;;;;;;;4.35;65.46;100327.13;4989601;28;4665;-81
2023/03/21 03:32:35;;;;;;;;;;;;;;;4.36;65.46;100326.13;4971341;28;4118;-82
2023/03/21 03:35:02;;;;;;;;;;;;;;;4.37;65.14;100327.78;4982037;28;4635;-82
2023/03/21 03:37:28;;;;;;;;;;;;;;;4.36;65.20;100335.97;4996558;28;4503;-82
2023/03/21 03:39:55;;;;;;;;;;;;;;;4.35;65.55;100332.47;4983002;28;4739;-82
2023/03/21 03:42:21;;;;;;;;;;;;;;;4.37;65.19;100327.78;4984613;28;5002;-81
2023/03/21 03:44:48;;;;;;;;;;;;;;;4.36;65.24;100341.31;5004758;28;4753;-82
2023/03/21 03:47:14;;;;;;;;;;;;;;;4.38;64.93;100333.94;4998531;28;4800;-82
2023/03/21 03:49:41;;;;;;;;;;;;;;;4.39;65.14;100332.94;4975441;28;4006;-81
2023/03/21 03:52:08;;;;;;;;;;;;;;;4.40;65.20;100329.25;5002312;28;4475;-82
2023/03/21 03:54:34;;;;;;;;;;;;;;;4.42;64.98;100327.25;4997581;28;4501;-81
2023/03/21 03:57:01;;;;;;;;;;;;;;;4.39;65.19;100333.75;4995297;28;4099;-82
2023/03/21 03:59:27;;;;;;;;;;;;;;;4.40;64.97;100319.41;5001984;28;4807;-80
2023/03/21 04:01:54;;;;;;;;;;;;;;;4.42;64.86;100321.91;4996080;28;4544;-81
2023/03/21 04:04:27;;;;;;;;;;;;;;;4.40;65.00;100316.75;4996981;28;4808;-82
2023/03/21 04:06:54;;;;;;;;;;;;;;;4.43;64.98;100324.38;4986870;28;5007;-82
2023/03/21 04:09:20;;;;;;;;;;;;;;;4.50;64.93;100316.44;4991091;28;4847;-81
2023/03/21 04:11:47;;;;;;;;;;;;;;;4.46;64.70;100308.00;4990877;28;4625;-82
2023/03/21 04:14:33;;;;;;;;;;;;;;;4.48;64.59;100307.81;4992001;28;4506;-81
2023/03/21 04:17:21;;;;;;;;;;;;;;;4.44;64.73;100312.72;4990592;28;4458;-80
2023/03/21 04:20:12;;;;;;;;;;;;;;;4.48;64.55;100307.81;4989091;28;4543;-81
2023/03/21 04:23:03;;;;;;;;;;;;;;;4.45;64.70;100302.88;4990246;28;4602;-81
2023/03/21 04:25:55;;;;;;;;;;;;;;;4.47;64.69;100298.16;4990274;28;4555;-83
2023/03/21 04:28:47;;;;;;;;;;;;;;;4.46;64.60;100301.84;4991689;28;3870;-82
2023/03/21 04:31:24;;;;;;;;;;;;;;;4.43;64.93;100303.03;4975069;28;4636;-81
2023/03/21 04:34:17;;;;;;;;;;;;;;;4.50;64.41;100295.97;4987036;28;3722;-83
2023/03/21 04:37:09;;;;;;;;;;;;;;;4.53;64.50;100300.94;4989677;28;3784;-82
2023/03/21 04:39:37;;;;;;;;;;;;;;;4.53;64.43;100310.78;4985723;28;4719;-80
2023/03/21 04:42:03;;;;;;;;;;;;;;;4.66;64.03;100300.25;4971793;28;4090;-82
2023/03/21 04:44:30;;;;;;;;;;;;;;;4.62;63.97;100298.97;4990890;28;4662;-82
2023/03/21 04:46:57;;;;;;;;;;;;;;;4.59;64.05;100293.16;4971601;28;4648;-81
2023/03/21 04:49:23;;;;;;;;;;;;;;;4.51;64.27;100296.78;4973213;28;4794;-80
2023/03/21 04:51:50;;;;;;;;;;;;;;;4.60;64.22;100302.84;4988250;28;4797;-83
2023/03/21 04:54:17;;;;;;;;;;;;;;;4.52;64.30;100301.09;4988801;28;3987;-82
2023/03/21 04:56:44;;;;;;;;;;;;;;;4.64;63.89;100296.94;4989243;28;4903;-82
2023/03/21 04:59:11;;;;;;;;;;;;;;;4.55;64.27;100298.06;4992414;28;4557;-82
2023/03/21 05:01:40;;;;;;;;;;;;;;;4.66;63.93;100310.91;4983728;28;4941;-81
2023/03/21 05:04:06;;;;;;;;;;;;;;;4.60;63.97;100294.84;4985454;28;4118;-80
2023/03/21 05:06:33;;;;;;;;;;;;;;;4.62;64.15;100292.78;4981966;28;4885;-82
2023/03/21 05:09:00;;;;;;;;;;;;;;;4.57;64.30;100284.53;4995893;28;4876;-82
2023/03/21 05:11:27;;;;;;;;;;;;;;;4.64;63.92;100293.44;4998577;28;4711;-82
2023/03/21 05:13:53;;;;;;;;;;;;;;;4.62;63.91;100290.97;4979032;28;5049;-82
2023/03/21 05:16:24;;;;;;;;;;;;;;;4.63;63.95;100289.13;4992923;28;4802;-84
2023/03/21 05:18:51;;;;;;;;;;;;;;;4.58;64.21;100286.19;4990546;28;4392;-82
2023/03/21 05:21:18;;;;;;;;;;;;;;;4.55;64.24;100287.38;4976692;28;3920;-79
2023/03/21 05:23:44;;;;;;;;;;;;;;;4.55;64.11;100288.22;4978667;28;4503;-82
2023/03/21 05:26:11;;;;;;;;;;;;;;;4.72;63.70;100282.66;4997498;28;4563;-82
2023/03/21 05:28:38;;;;;;;;;;;;;;;4.68;63.85;100282.22;4992844;28;4729;-82
2023/03/21 05:31:05;;;;;;;;;;;;;;;4.59;63.71;100288.69;4971915;28;3700;-81
2023/03/21 05:33:32;;;;;;;;;;;;;;;4.75;63.57;100282.28;4990639;28;3664;-81
2023/03/21 05:35:58;;;;;;;;;;;;;;;4.75;63.51;100279.63;4992672;28;4062;-82
2023/03/21 05:38:25;;;;;;;;;;;;;;;4.67;63.91;100285.06;4976892;28;4489;-82
2023/03/21 05:40:52;;;;;;;;;;;;;;;4.67;63.87;100282.41;4993756;28;3608;-81
2023/03/21 05:43:18;;;;;;;;;;;;;;;4.66;64.00;100280.75;4988352;28;4491;-82
2023/03/21 05:45:47;;;;;;;;;;;;;;;4.77;63.47;100286.44;4972214;28;4920;-81
2023/03/21 05:48:13;;;;;;;;;;;;;;;4.73;63.61;100289.66;4992695;28;3747;-82
2023/03/21 05:50:40;;;;;;;;;;;;;;;4.69;63.69;100283.88;4976618;28;4650;-82
2023/03/21 05:53:06;;;;;;;;;;;;;;;4.63;64.15;100287.28;4991063;28;4586;-83
2023/03/21 05:55:33;;;;;;;;;;;;;;;4.72;63.70;100282.66;4993116;28;3899;-81
2023/03/21 05:58:00;;;;;;;;;;;;;;;4.67;64.04;100285.88;4973678;28;4610;-83
2023/03/21 06:00:26;;;;;;;;;;;;;;;4.68;63.86;100276.06;4992009;28;3825;-81
2023/03/21 06:02:53;;;;;;;;;;;;;;;4.76;63.51;100289.25;4991875;28;4893;-83
2023/03/21 06:05:20;;;;;;;;;;;;;;;4.73;63.57;100285.13;4988836;28;5119;-81
2023/03/21 06:10:30;;;;;;;;;;;;;;;4.77;63.58;100283.75;4928919;28;3961;-80
2023/03/21 06:12:57;;;;;;;;;;;;;;;4.70;63.70;100282.84;4969558;28;4894;-83
2023/03/21 06:15:23;;;;;;;;;;;;;;;4.71;63.64;100289.84;4989660;28;4716;-82
2023/03/21 06:17:50;;;;;;;;;;;;;;;4.74;63.61;100284.13;4978024;28;4886;-83
2023/03/21 06:20:16;;;;;;;;;;;;;;;4.84;63.26;100286.50;4995119;28;4778;-82
2023/03/21 06:22:43;;;;;;;;;;;;;;;4.75;63.49;100282.28;4987613;28;4759;-82
2023/03/21 06:25:09;;;;;;;;;;;;;;;4.76;63.72;100276.78;4984956;28;5056;-81
2023/03/21 06:27:36;;;;;;;;;;;;;;;4.80;63.33;100276.41;5004339;28;5005;-82
2023/03/21 06:30:03;;;;;;;;;;;;;;;4.82;63.24;100272.50;4987356;28;4605;-82
2023/03/21 06:32:29;;;;;;;;;;;;;;;4.85;63.40;100277.47;4999916;28;4768;-82
2023/03/21 06:34:56;;;;;;;;;;;;;;;4.82;63.26;100271.69;4995503;28;4235;-82
2023/03/21 06:37:23;;;;;;;;;;;;;;;4.74;63.64;100270.78;4981771;28;4954;-82
2023/03/21 06:39:49;;;;;;;;;;;;;;;4.75;63.54;100269.78;5002187;28;4697;-82
2023/03/21 06:42:16;;;;;;;;;;;;;;;4.79;63.45;100272.88;4986240;28;3777;-81
2023/03/21 06:44:43;;;;;;;;;;;;;;;4.89;63.25;100275.25;5000375;28;4939;-82
2023/03/21 06:47:09;;;;;;;;;;;;;;;4.88;63.16;100281.59;5003511;28;4883;-81
2023/03/21 06:49:36;;;;;;;;;;;;;;;4.80;63.64;100279.88;5007305;28;3910;-81
2023/03/21 06:52:02;;;;;;;;;;;;;;;4.86;63.39;100287.13;4999175;28;4572;-82
2023/03/21 06:54:29;;;;;;;;;;;;;;;4.83;63.28;100284.84;5000417;28;5315;-80
2023/03/21 06:56:58;;;;;;;;;;;;;;;4.82;63.44;100279.69;4981614;28;4924;-81
2023/03/21 06:59:25;;;;;;;;;;;;;;;4.88;63.35;100289.59;5003120;28;4827;-80
2023/03/21 07:01:52;;;;;;;;;;;;;;;4.87;63.41;100291.44;4996477;28;4929;-80
2023/03/21 07:04:18;;;;;;;;;;;;;;;4.83;63.54;100289.38;5001892;28;4957;-83
2023/03/21 07:06:45;;;;;;;;;;;;;;;4.83;63.57;100284.84;5000594;28;5001;-81
2023/03/21 07:09:11;;;;;;;;;;;;;;;4.81;63.58;100289.53;4996133;28;4798;-81
2023/03/21 07:11:38;;;;;;;;;;;;;;;4.80;63.62;100287.91;5001119;28;4832;-80
2023/03/21 07:14:05;;;;;;;;;;;;;;;4.80;63.67;100290.56;4999206;28;4737;-85
2023/03/21 07:16:32;;;;;;;;;;;;;;;4.82;63.72;100282.34;4988380;28;4916;-82
2023/03/21 07:18:58;;;;;;;;;;;;;;;4.78;63.89;100284.56;5000992;28;5235;-83
2023/03/21 07:21:25;;;;;;;;;;;;;;;4.83;63.45;100289.38;4990909;28;4968;-82
2023/03/21 07:23:52;;;;;;;;;;;;;;;4.88;63.48;100289.59;4991014;28;4644;-81
2023/03/21 07:26:18;;;;;;;;;;;;;;;4.89;63.66;100280.59;4988491;28;4894;-81
2023/03/21 07:28:45;;;;;;;;;;;;;;;4.88;63.36;100289.59;4972972;28;4501;-81
2023/03/21 07:31:11;;;;;;;;;;;;;;;4.87;63.70;100294.13;4989432;28;4055;-80
2023/03/21 07:33:38;;;;;;;;;;;;;;;4.88;63.57;100285.13;4987889;28;4540;-80
2023/03/21 07:36:05;;;;;;;;;;;;;;;4.90;63.29;100287.59;4986076;28;4716;-81
2023/03/21 07:38:31;;;;;;;;;;;;;;;4.99;63.12;100284.59;4991820;28;4807;-82
2023/03/21 07:40:58;;;;;;;;;;;;;;;4.95;63.28;100275.31;4993831;28;4404;-80
2023/03/21 07:43:25;;;;;;;;;;;;;;;4.92;63.37;100275.69;4974178;28;3715;-80
2023/03/21 07:45:52;;;;;;;;;;;;;;;4.96;63.35;100270.81;4986946;28;4993;-81
2023/03/21 07:48:18;;;;;;;;;;;;;;;4.94;63.37;100265.69;5003654;28;4877;-80
2023/03/21 07:50:45;;;;;;;;;;;;;;;4.96;63.19;100276.97;4999483;28;4811;-81
2023/03/21 07:53:11;;;;;;;;;;;;;;;5.02;63.10;100270.03;4999041;28;4944;-81
2023/03/21 07:55:38;;;;;;;;;;;;;;;4.97;63.25;100273.31;4998380;28;4958;-81
2023/03/21 07:58:05;;;;;;;;;;;;;;;4.98;63.29;100276.78;5000923;28;4838;-80
2023/03/21 08:00:31;;;;;;;;;;;;;;;4.97;63.26;100272.44;4994497;28;4744;-82
2023/03/21 08:02:58;;;;;;;;;;;;;;;5.11;62.93;100273.41;4979395;28;4819;-81
2023/03/21 08:05:25;;;;;;;;;;;;;;;5.06;62.77;100268.66;4992162;28;4099;-81
2023/03/21 08:07:52;;;;;;;;;;;;;;;5.04;63.01;100267.19;4995697;28;4849;-81
2023/03/21 08:10:18;;;;;;;;;;;;;;;5.10;62.97;100269.94;4998162;28;4839;-81
2023/03/21 08:12:45;;;;;;;;;;;;;;;5.10;63.05;100269.94;4980420;28;3821;-79
2023/03/21 08:15:11;;;;;;;;;;;;;;;5.08;63.11;100271.13;4999022;28;4712;-81
2023/03/21 08:17:38;;;;;;;;;;;;;;;5.09;63.18;100264.75;4986267;28;3749;-81
2023/03/21 08:20:07;;;;;;;;;;;;;;;5.08;63.07;100255.13;4982161;28;4906;-81
2023/03/21 08:22:34;;;;;;;;;;;;;;;5.12;63.07;100259.06;4974201;28;4090;-80
2023/03/21 08:25:01;;;;;;;;;;;;;;;5.12;63.02;100262.56;4975678;28;4727;-81
2023/03/21 08:27:27;;;;;;;;;;;;;;;5.13;62.96;100261.53;4993366;28;4798;-81
2023/03/21 08:29:54;;;;;;;;;;;;;;;5.13;63.06;100266.06;4999420;28;4859;-80
2023/03/21 08:32:27;;;;;;;;;;;;;;;5.14;63.05;100262.34;4997081;28;4952;-81
2023/03/21 08:34:53;;;;;;;;;;;;;;;5.14;63.19;100255.16;4969943;28;4150;-82
2023/03/21 08:37:20;;;;;;;;;;;;;;;5.19;63.00;100259.94;4996074;28;4630;-81
2023/03/21 08:39:46;;;;;;;;;;;;;;;5.20;62.88;100257.06;4998965;28;4860;-82
2023/03/21 08:42:13;;;;;;;;;;;;;;;5.22;62.95;100256.91;4996950;28;4839;-82
2023/03/21 08:44:40;;;;;;;;;;;;;;;5.23;62.69;100251.38;4993171;28;4939;-83
2023/03/21 08:47:07;;;;;;;;;;;;;;;5.29;62.71;100236.41;5005780;28;4601;-82
2023/03/21 08:49:33;;;;;;;;;;;;;;;5.26;62.74;100247.47;4996841;28;4842;-82
2023/03/21 08:52:00;;;;;;;;;;;;;;;5.29;62.70;100251.59;4994421;28;3788;-81
2023/03/21 08:54:27;;;;;;;;;;;;;;;5.27;62.83;100261.66;5001653;28;4585;-81
2023/03/21 08:56:54;;;;;;;;;;;;;;;5.28;62.90;100261.47;4996398;28;5086;-81
2023/03/21 08:59:21;;;;;;;;;;;;;;;5.31;62.59;100253.06;4998101;28;4745;-81
2023/03/21 09:01:47;;;;;;;;;;;;;;;5.34;62.61;100252.69;4997973;28;4926;-81
2023/03/21 09:04:14;;;;;;;;;;;;;;;5.34;62.89;100257.19;4999837;28;4928;-81
2023/03/21 09:06:46;;;;;;;;;;;;;;;5.34;62.77;100249.19;4986407;28;4027;-80
2023/03/21 09:09:13;;;;;;;;;;;;;;;5.32;62.82;100254.72;4982969;28;4876;-81
2023/03/21 09:11:39;;;;;;;;;;;;;;;5.43;62.52;100245.34;4983992;28;4040;-80
2023/03/21 09:14:06;;;;;;;;;;;;;;;5.38;62.58;100247.78;4998178;28;4072;-80
2023/03/21 09:16:33;;;;;;;;;;;;;;;5.33;62.80;100243.03;4996303;28;4812;-81
2023/03/21 09:18:59;;;;;;;;;;;;;;;5.47;62.34;100250.13;4998191;28;4570;-81
2023/03/21 09:21:26;;;;;;;;;;;;;;;5.39;62.72;100246.78;4995320;28;5064;-81
2023/03/21 09:23:55;;;;;;;;;;;;;;;5.34;62.69;100252.69;4984548;28;4581;-81
2023/03/21 09:26:21;;;;;;;;;;;;;;;5.37;62.62;100252.28;4977901;28;3840;-81
2023/03/21 09:28:48;;;;;;;;;;;;;;;5.34;62.80;100255.34;4994015;28;4775;-81
2023/03/21 09:31:15;;;;;;;;;;;;;;;5.31;62.85;100254.91;4993086;28;4732;-81
2023/03/21 09:33:42;;;;;;;;;;;;;;;5.34;62.78;100244.66;4991155;28;4483;-81
2023/03/21 09:36:13;;;;;;;;;;;;;;;5.41;62.70;100252.72;4991804;28;3752;-81
2023/03/21 09:38:39;;;;;;;;;;;;;;;5.32;62.84;100240.53;4988768;28;4788;-79
2023/03/21 09:41:06;;;;;;;;;;;;;;;5.38;62.74;100242.44;4991707;28;3858;-81
2023/03/21 09:43:33;;;;;;;;;;;;;;;5.47;62.46;100242.13;4972754;28;4823;-81
2023/03/21 09:46:01;;;;;;;;;;;;;;;5.43;62.65;100234.66;4988137;28;5017;-81
2023/03/21 09:48:29;;;;;;;;;;;;;;;5.35;62.76;100235.63;4989608;28;4737;-81
2023/03/21 09:50:56;;;;;;;;;;;;;;;5.36;62.87;100237.28;4990075;28;4641;-81
2023/03/21 09:53:23;;;;;;;;;;;;;;;5.34;62.90;100233.16;4978152;28;4800;-80
2023/03/21 09:55:52;;;;;;;;;;;;;;;5.41;62.96;100234.03;4985172;28;4876;-80
2023/03/21 09:58:19;;;;;;;;;;;;;;;5.43;62.69;100230.16;4978828;28;4757;-81
2023/03/21 10:00:46;;;;;;;;;;;;;;;5.46;62.47;100223.59;4997050;28;4886;-80
2023/03/21 10:03:16;;;;;;;;;;;;;;;5.44;62.67;100228.28;4997902;28;4724;-80
2023/03/21 10:05:44;;;;;;;;;;;;;;;5.48;62.62;100229.59;4998685;28;4623;-80
2023/03/21 10:08:10;;;;;;;;;;;;;;;5.46;62.41;100231.63;4997239;28;4796;-81
2023/03/21 10:10:37;;;;;;;;;;;;;;;5.51;62.38;100223.03;4997636;28;5098;-79
2023/03/21 10:13:03;;;;;;;;;;;;;;;5.50;62.46;100214.19;4982838;28;4884;-80
2023/03/21 10:15:30;;;;;;;;;;;;;;;5.61;62.28;100223.50;4998956;28;5102;-80
2023/03/21 10:17:57;;;;;;;;;;;;;;;5.60;62.14;100227.19;5005193;28;4668;-82
2023/03/21 10:20:23;;;;;;;;;;;;;;;5.53;62.50;100220.97;4999645;28;4546;-81
2023/03/21 10:22:50;;;;;;;;;;;;;;;5.53;62.41;100208.47;5000358;28;4725;-81
2023/03/21 10:25:16;;;;;;;;;;;;;;;5.42;62.66;100200.97;4999254;28;4786;-81
2023/03/21 10:27:43;;;;;;;;;;;;;;;5.40;62.88;100203.00;4999250;28;4850;-81
2023/03/21 10:30:11;;;;;;;;;;;;;;;5.45;62.71;100204.09;4979833;28;4653;-81
2023/03/21 10:32:37;;;;;;;;;;;;;;;5.45;62.76;100205.94;4987163;28;4887;-82
2023/03/21 10:35:04;;;;;;;;;;;;;;;5.54;62.36;100206.59;5004388;28;4764;-81
2023/03/21 10:37:32;;;;;;;;;;;;;;;5.54;62.43;100195.94;5001012;28;4990;-80
2023/03/21 10:39:58;;;;;;;;;;;;;;;5.53;62.59;100199.59;5006212;28;1791;-80
2023/03/21 10:42:25;;;;;;;;;;;;;;;5.46;62.80;100192.38;5004976;28;2048;-79
2023/03/21 10:44:51;;;;;;;;;;;;;;;5.45;62.89;100195.25;5004514;28;1906;-81
2023/03/21 10:47:18;;;;;;;;;;;;;;;5.52;62.59;100193.44;5004759;28;2003;-79
2023/03/21 10:49:44;;;;;;;;;;;;;;;5.46;62.61;100191.53;5001422;28;4524;-82
2023/03/21 10:52:11;;;;;;;;;;;;;;;5.44;62.91;100188.22;4986421;28;4957;-80
2023/03/21 10:54:37;;;;;;;;;;;;;;;5.44;62.85;100186.41;4992525;28;4999;-80
2023/03/21 10:57:04;;;;;;;;;;;;;;;5.44;62.96;100181.06;4982763;28;4801;-79
2023/03/21 10:59:31;;;;;;;;;;;;;;;5.42;63.07;100184.94;4998416;28;4841;-80
2023/03/21 11:01:57;;;;;;;;;;;;;;;5.56;62.48;100178.69;4991944;28;4912;-78
2023/03/21 11:04:24;;;;;;;;;;;;;;;5.50;62.67;100181.28;5002132;28;4889;-81
2023/03/21 11:06:51;;;;;;;;;;;;;;;5.41;62.97;100180.63;5002977;28;3288;-79
2023/03/21 11:09:18;;;;;;;;;;;;;;;5.46;62.65;100172.84;4998400;28;5126;-78
2023/03/21 11:11:45;;;;;;;;;;;;;;;5.50;62.76;100181.28;4999374;28;4735;-78
2023/03/21 11:14:11;;;;;;;;;;;;;;;5.42;62.94;100175.09;4983007;28;4969;-79
2023/03/21 11:16:38;;;;;;;;;;;;;;;5.44;62.99;100172.22;4994262;28;4804;-78
2023/03/21 11:19:05;;;;;;;;;;;;;;;5.43;63.11;100174.06;5001138;28;4582;-78
2023/03/21 11:21:31;;;;;;;;;;;;;;;5.53;62.62;100171.06;4994556;28;5021;-78
2023/03/21 11:23:58;;;;;;;;;;;;;;;5.60;62.28;100171.91;4998836;28;4965;-79
2023/03/21 11:26:25;;;;;;;;;;;;;;;5.60;62.43;100168.44;5000545;28;5049;-80
2023/03/21 11:28:51;;;;;;;;;;;;;;;5.56;62.52;100168.00;4989737;28;4628;-79
2023/03/21 11:31:18;;;;;;;;;;;;;;;5.49;62.67;100159.09;4999229;28;5164;-79
2023/03/21 11:33:45;;;;;;;;;;;;;;;5.49;62.72;100159.09;4996264;28;4866;-80
2023/03/21 11:36:12;;;;;;;;;;;;;;;5.41;62.95;100159.25;4994707;28;4824;-79
2023/03/21 11:38:38;;;;;;;;;;;;;;;5.46;62.88;100149.63;4999887;28;4566;-79
2023/03/21 11:41:05;;;;;;;;;;;;;;;5.51;62.77;100151.72;4998135;28;4789;-78
2023/03/21 11:43:31;;;;;;;;;;;;;;;5.47;62.92;100148.63;4998773;28;4878;-80
2023/03/21 11:45:58;;;;;;;;;;;;;;;5.37;63.32;100149.97;4997458;28;4649;-78
2023/03/21 11:48:25;;;;;;;;;;;;;;;5.40;63.08;100150.41;4994948;28;4948;-80
2023/03/21 11:50:51;;;;;;;;;;;;;;;5.57;62.69;100150.13;4997186;28;4628;-79
2023/03/21 11:53:21;;;;;;;;;;;;;;;5.51;62.78;100142.88;4980271;28;4736;-79
2023/03/21 11:55:48;;;;;;;;;;;;;;;5.44;62.94;100151.69;4998619;28;4834;-81
2023/03/21 11:58:14;;;;;;;;;;;;;;;5.58;62.53;100149.91;4984088;28;4532;-78
2023/03/21 12:00:41;;;;;;;;;;;;;;;5.57;62.38;100144.78;4985138;28;4860;-79
2023/03/21 12:03:07;;;;;;;;;;;;;;;5.44;62.96;100146.34;4998456;28;5003;-78
2023/03/21 12:05:34;;;;;;;;;;;;;;;5.59;62.41;100148.06;4986597;28;4714;-81
2023/03/21 12:08:01;;;;;;;;;;;;;;;5.50;62.93;100141.22;4986382;28;4794;-77
2023/03/21 12:10:27;;;;;;;;;;;;;;;5.41;63.06;100137.88;4996495;28;4432;-78
2023/03/21 12:12:54;;;;;;;;;;;;;;;5.40;63.29;100134.38;4978573;28;4958;-78
2023/03/21 12:15:20;;;;;;;;;;;;;;;5.49;63.07;100127.03;4984701;28;4878;-80
2023/03/21 12:17:48;;;;;;;;;;;;;;;5.46;62.96;100128.25;4997679;28;4635;-78
2023/03/21 12:20:14;;;;;;;;;;;;;;;5.50;63.11;100127.88;4994251;28;5002;-80
2023/03/21 12:22:41;;;;;;;;;;;;;;;5.51;62.91;100133.03;4984576;28;5011;-78
2023/03/21 12:25:07;;;;;;;;;;;;;;;5.51;62.92;100126.88;5001968;28;4984;-79
2023/03/21 12:27:35;;;;;;;;;;;;;;;5.47;63.07;100123.72;4983896;28;4672;-79
2023/03/21 12:30:02;;;;;;;;;;;;;;;5.41;63.08;100127.19;4996580;28;4120;-80
2023/03/21 12:32:28;;;;;;;;;;;;;;;5.51;62.96;100122.34;4995219;28;5062;-79
2023/03/21 12:34:55;;;;;;;;;;;;;;;5.56;62.82;100117.25;5001639;28;4773;-80
2023/03/21 12:37:21;;;;;;;;;;;;;;;5.47;63.10;100119.25;4986475;28;5037;-79
2023/03/21 12:39:48;;;;;;;;;;;;;;;5.46;62.95;100122.09;4987254;28;5086;-81
2023/03/21 12:42:14;;;;;;;;;;;;;;;5.41;63.25;100109.34;4982876;28;5109;-78
2023/03/21 12:44:43;;;;;;;;;;;;;;;5.42;63.12;100113.66;4993840;28;5064;-78
2023/03/21 12:47:10;;;;;;;;;;;;;;;5.44;62.96;100111.63;4996845;28;5047;-78
2023/03/21 12:49:36;;;;;;;;;;;;;;;5.42;63.31;100108.31;4998362;28;4696;-81
2023/03/21 12:52:03;;;;;;;;;;;;;;;5.44;63.18;100105.44;5000209;28;4885;-80
2023/03/21 12:54:29;;;;;;;;;;;;;;;5.41;63.06;100096.00;4999743;28;5043;-79
2023/03/21 12:56:56;;;;;;;;;;;;;;;5.39;63.29;100092.69;4982141;28;4944;-77
2023/03/21 12:59:22;;;;;;;;;;;;;;;5.49;63.04;100092.31;4983033;28;4894;-77
2023/03/21 13:01:51;;;;;;;;;;;;;;;5.42;63.27;100091.47;4998436;28;5189;-80